createdAt,value
2022-10-23T00:00:07.929Z,20.52
2022-10-23T00:01:07.884Z,20.52
2022-10-23T00:02:07.983Z,20.52
2022-10-23T00:03:07.839Z,20.51
2022-10-23T00:04:07.825Z,20.52
2022-10-23T00:05:07.815Z,20.52
2022-10-23T00:06:07.809Z,20.51
2022-10-23T00:07:07.820Z,20.51
2022-10-23T00:08:07.784Z,20.52
2022-10-23T00:09:07.774Z,20.51
2022-10-23T00:10:07.764Z,20.51
2022-10-23T00:11:07.749Z,20.52
2022-10-23T00:12:07.766Z,20.52
2022-10-23T00:13:07.730Z,20.52
2022-10-23T00:14:07.717Z,20.52
2022-10-23T00:15:07.707Z,20.51
2022-10-23T00:16:07.703Z,20.51
2022-10-23T00:17:07.738Z,20.52
2022-10-23T00:18:07.674Z,20.51
2022-10-23T00:19:07.668Z,20.52
2022-10-23T00:20:07.655Z,20.52
2022-10-23T00:21:07.641Z,20.51
2022-10-23T00:22:07.659Z,20.51
2022-10-23T00:23:07.623Z,20.51
2022-10-23T00:24:07.610Z,20.51
2022-10-23T00:25:07.602Z,20.51
2022-10-23T00:26:07.588Z,20.51
2022-10-23T00:27:07.609Z,20.51
2022-10-23T00:28:07.566Z,20.52
2022-10-23T00:29:07.556Z,20.52
2022-10-23T00:30:07.546Z,20.51
2022-10-23T00:31:07.535Z,20.51
2022-10-23T00:32:07.550Z,20.51
2022-10-23T00:33:07.541Z,20.51
2022-10-23T00:34:07.503Z,20.51
2022-10-23T00:35:07.495Z,20.51
2022-10-23T00:36:07.481Z,20.51
2022-10-23T00:37:07.499Z,20.51
2022-10-23T00:38:07.461Z,20.51
2022-10-23T00:39:07.474Z,20.51
2022-10-23T00:40:07.438Z,20.51
2022-10-23T00:41:07.432Z,20.51
2022-10-23T00:42:07.417Z,20.51
2022-10-23T00:43:07.408Z,20.51
2022-10-23T00:44:07.426Z,20.51
2022-10-23T00:45:07.386Z,20.50
2022-10-23T00:46:07.373Z,20.52
2022-10-23T00:47:07.373Z,20.51
2022-10-23T00:48:07.352Z,20.51
2022-10-23T00:49:07.479Z,20.51
2022-10-23T00:50:07.331Z,20.50
2022-10-23T00:51:07.324Z,20.50
2022-10-23T00:52:07.309Z,20.51
2022-10-23T00:53:07.304Z,20.52
2022-10-23T00:54:24.385Z,20.51
2022-10-23T00:55:08.280Z,20.50
2022-10-23T00:56:07.270Z,20.51
2022-10-23T00:57:07.257Z,20.50
2022-10-23T00:58:07.246Z,20.51
2022-10-23T00:59:07.262Z,20.50
2022-10-23T01:00:07.223Z,20.51
2022-10-23T01:01:07.298Z,20.50
2022-10-23T01:02:07.367Z,20.51
2022-10-23T01:03:07.190Z,20.51
2022-10-23T01:04:07.214Z,20.50
2022-10-23T01:05:07.195Z,20.50
2022-10-23T01:06:07.157Z,20.51
2022-10-23T01:07:07.152Z,20.50
2022-10-23T01:08:07.136Z,20.50
2022-10-23T01:09:07.131Z,20.50
2022-10-23T01:10:07.144Z,20.50
2022-10-23T01:11:07.104Z,20.50
2022-10-23T01:12:07.093Z,20.50
2022-10-23T01:13:07.086Z,20.50
2022-10-23T01:14:07.104Z,20.48
2022-10-23T01:15:07.067Z,20.50
2022-10-23T01:16:07.050Z,20.48
2022-10-23T01:17:07.042Z,20.51
2022-10-23T01:18:07.030Z,20.51
2022-10-23T01:19:07.048Z,20.50
2022-10-23T01:20:07.035Z,20.50
2022-10-23T01:21:07.023Z,20.50
2022-10-23T01:22:06.985Z,20.51
2022-10-23T01:23:06.981Z,20.50
2022-10-23T01:24:06.964Z,20.50
2022-10-23T01:25:06.986Z,20.51
2022-10-23T01:26:06.943Z,20.50
2022-10-23T01:27:06.933Z,20.50
2022-10-23T01:28:06.939Z,20.50
2022-10-23T01:29:06.911Z,20.48
2022-10-23T01:30:06.933Z,20.50
2022-10-23T01:31:06.890Z,20.48
2022-10-23T01:32:06.908Z,20.50
2022-10-23T01:33:06.868Z,20.51
2022-10-23T01:34:06.857Z,20.50
2022-10-23T01:35:06.848Z,20.50
2022-10-23T01:36:06.835Z,20.48
2022-10-23T01:37:06.878Z,20.48
2022-10-23T01:38:06.814Z,20.50
2022-10-23T01:39:06.809Z,20.50
2022-10-23T01:40:06.792Z,20.48
2022-10-23T01:41:06.781Z,20.48
2022-10-23T01:42:06.798Z,20.48
2022-10-23T01:43:06.759Z,20.50
2022-10-23T01:44:06.776Z,20.48
2022-10-23T01:45:06.743Z,20.48
2022-10-23T01:46:06.726Z,20.48
2022-10-23T01:47:06.718Z,20.48
2022-10-23T01:48:06.705Z,20.48
2022-10-23T01:49:06.723Z,20.48
2022-10-23T01:50:06.683Z,20.50
2022-10-23T01:51:06.675Z,20.50
2022-10-23T01:52:06.664Z,20.50
2022-10-23T01:53:06.677Z,20.50
2022-10-23T01:54:06.667Z,20.48
2022-10-23T01:55:06.630Z,20.48
2022-10-23T01:56:06.647Z,20.48
2022-10-23T01:57:06.610Z,20.48
2022-10-23T01:58:06.601Z,20.47
2022-10-23T01:59:06.588Z,20.48
2022-10-23T02:00:06.574Z,20.48
2022-10-23T02:01:06.619Z,20.50
2022-10-23T02:02:06.707Z,20.50
2022-10-23T02:03:06.543Z,20.48
2022-10-23T02:04:06.558Z,20.48
2022-10-23T02:05:06.529Z,20.48
2022-10-23T02:06:06.509Z,20.48
2022-10-23T02:07:06.503Z,20.48
2022-10-23T02:08:06.488Z,20.47
2022-10-23T02:09:06.529Z,20.48
2022-10-23T02:10:06.467Z,20.48
2022-10-23T02:11:06.457Z,20.47
2022-10-23T02:12:06.470Z,20.47
2022-10-23T02:13:06.434Z,20.48
2022-10-23T02:14:06.424Z,20.48
2022-10-23T02:15:06.415Z,20.48
2022-10-23T02:16:06.402Z,20.47
2022-10-23T02:17:06.422Z,20.48
2022-10-23T02:18:06.406Z,20.47
2022-10-23T02:19:06.602Z,20.48
2022-10-23T02:20:06.364Z,20.48
2022-10-23T02:21:06.350Z,20.48
2022-10-23T02:22:06.339Z,20.47
2022-10-23T02:23:06.356Z,20.48
2022-10-23T02:24:06.317Z,20.47
2022-10-23T02:25:06.356Z,20.47
2022-10-23T02:26:06.295Z,20.48
2022-10-23T02:27:06.283Z,20.47
2022-10-23T02:28:06.278Z,20.48
2022-10-23T02:30:06.279Z,20.47
2022-10-23T02:31:06.242Z,20.48
2022-10-23T02:32:06.229Z,20.48
2022-10-23T02:33:06.220Z,20.48
2022-10-23T02:34:06.209Z,20.48
2022-10-23T02:35:06.225Z,20.47
2022-10-23T02:36:06.186Z,20.47
2022-10-23T02:37:06.192Z,20.48
2022-10-23T02:38:06.187Z,20.48
2022-10-23T02:39:06.155Z,20.47
2022-10-23T02:40:06.188Z,20.48
2022-10-23T02:41:06.157Z,20.47
2022-10-23T02:42:06.150Z,20.44
2022-10-23T02:43:06.138Z,20.47
2022-10-23T02:44:06.101Z,20.47
2022-10-23T02:45:06.092Z,20.47
2022-10-23T02:46:06.079Z,20.47
2022-10-23T02:47:06.067Z,20.48
2022-10-23T02:48:06.084Z,20.44
2022-10-23T02:49:06.050Z,20.48
2022-10-23T02:50:06.047Z,20.48
2022-10-23T02:51:06.027Z,20.47
2022-10-23T02:52:06.013Z,20.47
2022-10-23T02:53:06.042Z,20.47
2022-10-23T02:54:05.993Z,20.48
2022-10-23T02:55:05.984Z,20.47
2022-10-23T02:56:05.970Z,20.47
2022-10-23T02:57:05.985Z,20.47
2022-10-23T02:58:05.949Z,20.47
2022-10-23T02:59:05.967Z,20.47
2022-10-23T03:00:05.928Z,20.44
2022-10-23T03:01:05.985Z,20.47
2022-10-23T03:02:06.075Z,20.47
2022-10-23T03:03:05.898Z,20.47
2022-10-23T03:04:05.914Z,20.44
2022-10-23T03:05:05.879Z,20.47
2022-10-23T03:06:05.863Z,20.44
2022-10-23T03:07:05.853Z,20.44
2022-10-23T03:08:05.842Z,20.47
2022-10-23T03:09:05.856Z,20.44
2022-10-23T03:10:05.822Z,20.47
2022-10-23T03:11:05.809Z,20.47
2022-10-23T03:12:05.820Z,20.44
2022-10-23T03:13:05.814Z,20.44
2022-10-23T03:14:05.777Z,20.44
2022-10-23T03:15:05.768Z,20.44
2022-10-23T03:16:05.755Z,20.44
2022-10-23T03:17:05.771Z,20.47
2022-10-23T03:18:05.772Z,20.44
2022-10-23T03:19:05.780Z,20.44
2022-10-23T03:20:05.714Z,20.47
2022-10-23T03:21:05.701Z,20.44
2022-10-23T03:22:05.691Z,20.44
2022-10-23T03:23:05.680Z,20.47
2022-10-23T03:24:05.693Z,20.44
2022-10-23T03:25:05.659Z,20.44
2022-10-23T03:26:05.680Z,20.44
2022-10-23T03:27:05.637Z,20.44
2022-10-23T03:28:05.628Z,20.44
2022-10-23T03:29:05.637Z,20.43
2022-10-23T03:30:05.605Z,20.44
2022-10-23T03:31:05.615Z,20.44
2022-10-23T03:32:05.587Z,20.44
2022-10-23T03:33:05.573Z,20.44
2022-10-23T03:34:08.140Z,20.47
2022-10-23T03:35:05.574Z,20.44
2022-10-23T03:36:05.563Z,20.44
2022-10-23T03:37:05.529Z,20.43
2022-10-23T03:38:05.541Z,20.47
2022-10-23T03:39:05.507Z,20.43
2022-10-23T03:40:05.525Z,20.44
2022-10-23T03:41:05.489Z,20.44
2022-10-23T03:42:05.477Z,20.44
2022-10-23T03:43:05.487Z,20.43
2022-10-23T03:45:05.465Z,20.44
2022-10-23T03:46:05.433Z,20.44
2022-10-23T03:47:05.422Z,20.44
2022-10-23T03:48:05.434Z,20.44
2022-10-23T03:49:05.401Z,20.44
2022-10-23T03:50:05.391Z,20.43
2022-10-23T03:51:05.379Z,20.44
2022-10-23T03:52:05.372Z,20.43
2022-10-23T03:53:05.379Z,20.44
2022-10-23T03:54:05.347Z,20.44
2022-10-23T03:55:05.339Z,20.44
2022-10-23T03:56:05.325Z,20.43
2022-10-23T03:57:05.316Z,20.43
2022-10-23T03:58:05.326Z,20.44
2022-10-23T03:59:05.315Z,20.44
2022-10-23T04:00:05.294Z,20.43
2022-10-23T04:01:05.392Z,20.44
2022-10-23T04:02:05.435Z,20.44
2022-10-23T04:03:05.265Z,20.44
2022-10-23T04:04:05.264Z,20.44
2022-10-23T04:05:05.242Z,20.43
2022-10-23T04:06:05.218Z,20.43
2022-10-23T04:07:05.229Z,20.43
2022-10-23T04:08:05.198Z,20.43
2022-10-23T04:09:05.222Z,20.44
2022-10-23T04:10:05.178Z,20.43
2022-10-23T04:11:05.187Z,20.44
2022-10-23T04:12:05.180Z,20.43
2022-10-23T04:13:05.143Z,20.44
2022-10-23T04:14:05.134Z,20.41
2022-10-23T04:15:05.124Z,20.43
2022-10-23T04:16:05.116Z,20.43
2022-10-23T04:17:05.149Z,20.41
2022-10-23T04:18:05.089Z,20.43
2022-10-23T04:19:05.080Z,20.43
2022-10-23T04:20:05.070Z,20.44
2022-10-23T04:21:05.057Z,20.44
2022-10-23T04:22:05.073Z,20.44
2022-10-23T04:23:05.037Z,20.44
2022-10-23T04:24:05.029Z,20.44
2022-10-23T04:25:05.014Z,20.43
2022-10-23T04:26:05.010Z,20.43
2022-10-23T04:27:05.016Z,20.41
2022-10-23T04:28:04.983Z,20.44
2022-10-23T04:29:04.971Z,20.43
2022-10-23T04:30:04.962Z,20.44
2022-10-23T04:31:04.971Z,20.43
2022-10-23T04:32:04.939Z,20.44
2022-10-23T04:33:04.951Z,20.43
2022-10-23T04:35:04.906Z,20.43
2022-10-23T04:36:04.899Z,20.41
2022-10-23T04:37:04.885Z,20.41
2022-10-23T04:38:04.880Z,20.43
2022-10-23T04:39:04.889Z,20.43
2022-10-23T04:40:04.852Z,20.43
2022-10-23T04:41:04.842Z,20.44
2022-10-23T04:42:04.832Z,20.43
2022-10-23T04:43:04.820Z,20.44
2022-10-23T04:44:04.836Z,20.44
2022-10-23T04:45:04.799Z,20.43
2022-10-23T04:46:04.812Z,20.41
2022-10-23T04:47:04.776Z,20.41
2022-10-23T04:48:04.768Z,20.43
2022-10-23T04:49:04.780Z,20.44
2022-10-23T04:50:04.746Z,20.43
2022-10-23T04:51:04.755Z,20.43
2022-10-23T04:52:04.724Z,20.43
2022-10-23T04:53:04.712Z,20.43
2022-10-23T04:54:04.701Z,20.43
2022-10-23T04:55:04.690Z,20.41
2022-10-23T04:56:04.704Z,20.41
2022-10-23T04:57:04.699Z,20.41
2022-10-23T04:58:04.660Z,20.43
2022-10-23T05:00:04.637Z,20.41
2022-10-23T05:01:04.735Z,20.43
2022-10-23T05:02:04.616Z,20.41
2022-10-23T05:03:04.629Z,20.43
2022-10-23T05:04:04.596Z,20.40
2022-10-23T05:05:04.606Z,20.41
2022-10-23T05:06:04.572Z,20.43
2022-10-23T05:07:04.562Z,20.41
2022-10-23T05:08:04.575Z,20.41
2022-10-23T05:09:04.563Z,20.43
2022-10-23T05:10:04.554Z,20.41
2022-10-23T05:11:04.519Z,20.43
2022-10-23T05:12:04.510Z,20.41
2022-10-23T05:13:04.498Z,20.41
2022-10-23T05:14:04.511Z,20.41
2022-10-23T05:15:04.478Z,20.43
2022-10-23T05:16:04.490Z,20.41
2022-10-23T05:17:04.456Z,20.43
2022-10-23T05:18:04.449Z,20.41
2022-10-23T05:19:04.455Z,20.41
2022-10-23T05:20:04.482Z,20.43
2022-10-23T05:21:04.434Z,20.41
2022-10-23T05:22:04.405Z,20.41
2022-10-23T05:23:04.390Z,20.41
2022-10-23T05:24:04.419Z,20.41
2022-10-23T05:25:04.425Z,20.41
2022-10-23T05:26:04.361Z,20.41
2022-10-23T05:27:04.351Z,20.41
2022-10-23T05:28:04.337Z,20.41
2022-10-23T05:29:04.326Z,20.41
2022-10-23T05:30:04.342Z,20.41
2022-10-23T05:31:04.305Z,20.41
2022-10-23T05:32:04.296Z,20.41
2022-10-23T05:33:04.285Z,20.43
2022-10-23T05:34:04.276Z,20.41
2022-10-23T05:35:04.286Z,20.40
2022-10-23T05:36:04.256Z,20.40
2022-10-23T05:37:04.263Z,20.40
2022-10-23T05:38:04.230Z,20.41
2022-10-23T05:39:04.218Z,20.41
2022-10-23T05:40:04.234Z,20.41
2022-10-23T05:41:04.217Z,20.41
2022-10-23T05:42:04.188Z,20.41
2022-10-23T05:43:04.177Z,20.41
2022-10-23T05:44:04.167Z,20.41
2022-10-23T05:45:04.154Z,20.40
2022-10-23T05:46:04.169Z,20.40
2022-10-23T05:47:04.155Z,20.40
2022-10-23T05:48:16.886Z,20.41
2022-10-23T05:49:05.113Z,20.40
2022-10-23T05:50:04.104Z,20.41
2022-10-23T05:51:04.089Z,20.41
2022-10-23T05:52:04.102Z,20.40
2022-10-23T05:53:04.092Z,20.41
2022-10-23T05:54:04.059Z,20.41
2022-10-23T05:55:04.068Z,20.40
2022-10-23T05:56:04.037Z,20.41
2022-10-23T05:57:04.079Z,20.41
2022-10-23T05:58:04.014Z,20.40
2022-10-23T05:59:04.003Z,20.40
2022-10-23T06:00:04.017Z,20.40
2022-10-23T06:01:04.072Z,20.40
2022-10-23T06:02:04.093Z,20.40
2022-10-23T06:03:03.964Z,20.41
2022-10-23T06:04:03.952Z,20.40
2022-10-23T06:05:03.960Z,20.41
2022-10-23T06:06:03.934Z,20.40
2022-10-23T06:07:03.917Z,20.41
2022-10-23T06:08:03.929Z,20.40
2022-10-23T06:09:03.921Z,20.41
2022-10-23T06:10:03.885Z,20.41
2022-10-23T06:11:03.879Z,20.41
2022-10-23T06:12:03.866Z,20.40
2022-10-23T06:13:03.892Z,20.40
2022-10-23T06:14:03.844Z,20.40
2022-10-23T06:15:03.841Z,20.41
2022-10-23T06:16:08.607Z,20.41
2022-10-23T06:17:04.809Z,20.40
2022-10-23T06:18:03.799Z,20.41
2022-10-23T06:19:03.811Z,20.41
2022-10-23T06:20:03.780Z,20.41
2022-10-23T06:21:03.769Z,20.40
2022-10-23T06:22:03.779Z,20.41
2022-10-23T06:23:03.748Z,20.39
2022-10-23T06:24:03.743Z,20.40
2022-10-23T06:25:03.753Z,20.40
2022-10-23T06:26:03.713Z,20.40
2022-10-23T06:27:03.724Z,20.40
2022-10-23T06:28:03.713Z,20.40
2022-10-23T06:29:03.682Z,20.40
2022-10-23T06:30:03.671Z,20.41
2022-10-23T06:31:03.686Z,20.41
2022-10-23T06:32:03.649Z,20.40
2022-10-23T06:33:05.898Z,20.40
2022-10-23T06:34:03.649Z,20.40
2022-10-23T06:35:03.618Z,20.40
2022-10-23T06:36:03.623Z,20.41
2022-10-23T06:37:03.618Z,20.39
2022-10-23T06:38:03.586Z,20.40
2022-10-23T06:39:03.576Z,20.40
2022-10-23T06:40:03.588Z,20.41
2022-10-23T06:41:03.578Z,20.40
2022-10-23T06:42:03.542Z,20.40
2022-10-23T06:43:03.533Z,20.39
2022-10-23T06:44:03.521Z,20.40
2022-10-23T06:45:06.476Z,20.39
2022-10-23T06:46:03.499Z,20.41
2022-10-23T06:47:03.617Z,20.39
2022-10-23T06:48:03.499Z,20.41
2022-10-23T06:49:03.467Z,20.40
2022-10-23T06:50:03.456Z,20.40
2022-10-23T06:51:03.446Z,20.40
2022-10-23T06:52:03.434Z,20.40
2022-10-23T06:53:03.450Z,20.40
2022-10-23T06:54:03.413Z,20.40
2022-10-23T06:55:03.441Z,20.39
2022-10-23T06:56:03.393Z,20.40
2022-10-23T06:57:03.407Z,20.40
2022-10-23T06:58:03.377Z,20.40
2022-10-23T06:59:03.361Z,20.40
2022-10-23T07:00:03.349Z,20.40
2022-10-23T07:01:03.506Z,20.39
2022-10-23T07:02:03.351Z,20.40
2022-10-23T07:03:03.316Z,20.40
2022-10-23T07:04:03.304Z,20.39
2022-10-23T07:05:03.298Z,20.40
2022-10-23T07:06:03.284Z,20.40
2022-10-23T07:07:03.296Z,20.40
2022-10-23T07:08:03.262Z,20.40
2022-10-23T07:09:03.275Z,20.40
2022-10-23T07:10:03.332Z,20.40
2022-10-23T07:11:03.231Z,20.39
2022-10-23T07:12:03.220Z,20.40
2022-10-23T07:13:03.256Z,20.39
2022-10-23T07:14:03.197Z,20.40
2022-10-23T07:15:03.211Z,20.39
2022-10-23T07:16:03.175Z,20.40
2022-10-23T07:17:03.188Z,20.40
2022-10-23T07:18:03.154Z,20.40
2022-10-23T07:19:03.144Z,20.39
2022-10-23T07:20:03.146Z,20.40
2022-10-23T07:21:03.122Z,20.40
2022-10-23T07:22:03.134Z,20.39
2022-10-23T07:23:03.101Z,20.40
2022-10-23T07:24:03.089Z,20.40
2022-10-23T07:25:03.081Z,20.40
2022-10-23T07:26:03.068Z,20.40
2022-10-23T07:27:03.083Z,20.40
2022-10-23T07:28:03.046Z,20.40
2022-10-23T07:29:03.062Z,20.40
2022-10-23T07:30:03.028Z,20.39
2022-10-23T07:31:03.016Z,20.39
2022-10-23T07:32:03.031Z,20.39
2022-10-23T07:33:02.994Z,20.39
2022-10-23T07:34:02.995Z,20.40
2022-10-23T07:35:03.033Z,20.40
2022-10-23T07:36:02.969Z,20.40
2022-10-23T07:37:02.977Z,20.40
2022-10-23T07:38:02.940Z,20.40
2022-10-23T07:39:02.933Z,20.39
2022-10-23T07:40:02.919Z,20.40
2022-10-23T07:41:02.908Z,20.40
2022-10-23T07:42:02.923Z,20.40
2022-10-23T07:43:02.885Z,20.39
2022-10-23T07:44:02.877Z,20.40
2022-10-23T07:45:02.909Z,20.39
2022-10-23T07:46:02.855Z,20.39
2022-10-23T07:47:02.866Z,20.40
2022-10-23T07:48:02.834Z,20.39
2022-10-23T07:49:02.841Z,20.40
2022-10-23T07:50:02.822Z,20.39
2022-10-23T07:51:02.823Z,20.40
2022-10-23T07:53:02.778Z,20.40
2022-10-23T07:54:02.770Z,20.39
2022-10-23T07:55:02.760Z,20.40
2022-10-23T07:56:02.772Z,20.39
2022-10-23T07:57:02.736Z,20.39
2022-10-23T07:58:02.727Z,20.40
2022-10-23T07:59:02.713Z,20.40
2022-10-23T08:00:02.727Z,20.40
2022-10-23T08:01:02.782Z,20.40
2022-10-23T08:02:02.751Z,20.40
2022-10-23T08:03:02.672Z,20.40
2022-10-23T08:04:02.683Z,20.40
2022-10-23T08:05:02.650Z,20.39
2022-10-23T08:06:02.645Z,20.39
2022-10-23T08:07:02.631Z,20.40
2022-10-23T08:08:02.619Z,20.39
2022-10-23T08:09:06.168Z,20.39
2022-10-23T08:10:02.622Z,20.40
2022-10-23T08:11:02.585Z,20.39
2022-10-23T08:12:02.576Z,20.39
2022-10-23T08:13:02.563Z,20.40
2022-10-23T08:14:02.553Z,20.40
2022-10-23T08:15:02.570Z,20.39
2022-10-23T08:16:02.534Z,20.40
2022-10-23T08:18:02.516Z,20.39
2022-10-23T08:19:02.509Z,20.39
2022-10-23T08:20:02.525Z,20.39
2022-10-23T08:21:02.477Z,20.39
2022-10-23T08:22:02.466Z,20.39
2022-10-23T08:23:02.457Z,20.40
2022-10-23T08:24:02.447Z,20.40
2022-10-23T08:25:02.434Z,20.39
2022-10-23T08:26:02.452Z,20.40
2022-10-23T08:27:02.413Z,20.40
2022-10-23T08:28:05.484Z,20.39
2022-10-23T08:29:02.393Z,20.40
2022-10-23T08:30:02.411Z,20.39
2022-10-23T08:31:02.372Z,20.39
2022-10-23T08:32:02.405Z,20.40
2022-10-23T08:33:02.373Z,20.40
2022-10-23T08:34:02.340Z,20.40
2022-10-23T08:35:02.327Z,20.39
2022-10-23T08:36:02.321Z,20.40
2022-10-23T08:37:02.306Z,20.39
2022-10-23T08:38:02.320Z,20.40
2022-10-23T08:39:02.287Z,20.40
2022-10-23T08:40:02.273Z,20.39
2022-10-23T08:41:02.264Z,20.40
2022-10-23T08:42:02.365Z,20.39
2022-10-23T08:43:02.247Z,20.40
2022-10-23T08:44:02.255Z,20.40
2022-10-23T08:45:02.220Z,20.40
2022-10-23T08:46:04.168Z,20.40
2022-10-23T08:47:02.198Z,20.39
2022-10-23T08:48:02.190Z,20.40
2022-10-23T08:49:02.233Z,20.40
2022-10-23T08:50:02.177Z,20.40
2022-10-23T08:51:02.182Z,20.39
2022-10-23T08:52:02.148Z,20.40
2022-10-23T08:53:02.137Z,20.39
2022-10-23T08:54:02.124Z,20.39
2022-10-23T08:55:02.114Z,20.39
2022-10-23T08:56:02.126Z,20.40
2022-10-23T08:57:02.093Z,20.40
2022-10-23T08:58:02.088Z,20.40
2022-10-23T08:59:02.069Z,20.40
2022-10-23T09:00:02.082Z,20.40
2022-10-23T09:01:02.229Z,20.40
2022-10-23T09:02:02.206Z,20.40
2022-10-23T09:03:02.033Z,20.40
2022-10-23T09:04:02.040Z,20.40
2022-10-23T09:05:02.027Z,20.39
2022-10-23T09:06:01.993Z,20.40
2022-10-23T09:07:02.032Z,20.40
2022-10-23T09:08:01.973Z,20.40
2022-10-23T09:09:02.003Z,20.40
2022-10-23T09:10:01.951Z,20.41
2022-10-23T09:11:01.965Z,20.40
2022-10-23T09:12:01.929Z,20.40
2022-10-23T09:13:01.918Z,20.41
2022-10-23T09:14:01.910Z,20.40
2022-10-23T09:15:01.897Z,20.40
2022-10-23T09:16:01.943Z,20.40
2022-10-23T09:17:01.923Z,20.40
2022-10-23T09:18:01.868Z,20.40
2022-10-23T09:19:01.854Z,20.40
2022-10-23T09:20:01.876Z,20.40
2022-10-23T09:21:01.854Z,20.40
2022-10-23T09:22:01.862Z,20.39
2022-10-23T09:23:01.811Z,20.41
2022-10-23T09:24:01.801Z,20.40
2022-10-23T09:25:01.790Z,20.40
2022-10-23T09:26:01.778Z,20.37
2022-10-23T09:27:01.855Z,20.40
2022-10-23T09:28:05.233Z,20.40
2022-10-23T09:29:01.747Z,20.39
2022-10-23T09:30:01.790Z,20.40
2022-10-23T09:31:01.724Z,20.39
2022-10-23T09:32:01.723Z,20.40
2022-10-23T09:33:01.703Z,20.40
2022-10-23T09:34:01.697Z,20.40
2022-10-23T09:35:01.709Z,20.39
2022-10-23T09:36:01.674Z,20.40
2022-10-23T09:37:01.687Z,20.39
2022-10-23T09:38:01.672Z,20.40
2022-10-23T09:39:01.639Z,20.40
2022-10-23T09:40:01.630Z,20.39
2022-10-23T09:41:01.617Z,20.40
2022-10-23T09:42:01.608Z,20.40
2022-10-23T09:43:01.618Z,20.41
2022-10-23T09:44:01.584Z,20.40
2022-10-23T09:45:01.575Z,20.40
2022-10-23T09:46:01.565Z,20.40
2022-10-23T09:47:01.553Z,20.40
2022-10-23T09:48:01.582Z,20.40
2022-10-23T09:49:03.585Z,20.40
2022-10-23T09:50:01.531Z,20.40
2022-10-23T09:51:01.509Z,20.39
2022-10-23T09:52:01.504Z,20.39
2022-10-23T09:53:01.541Z,20.40
2022-10-23T09:54:01.477Z,20.40
2022-10-23T09:55:01.488Z,20.39
2022-10-23T09:56:01.460Z,20.40
2022-10-23T09:57:01.445Z,20.39
2022-10-23T09:58:01.436Z,20.41
2022-10-23T09:59:01.423Z,20.40
2022-10-23T10:00:01.439Z,20.40
2022-10-23T10:01:01.480Z,20.40
2022-10-23T10:02:01.568Z,20.40
2022-10-23T10:03:01.382Z,20.40
2022-10-23T10:04:01.373Z,20.40
2022-10-23T10:05:01.381Z,20.39
2022-10-23T10:06:01.350Z,20.40
2022-10-23T10:07:01.339Z,20.40
2022-10-23T10:08:01.329Z,20.40
2022-10-23T10:09:01.340Z,20.40
2022-10-23T10:10:01.346Z,20.41
2022-10-23T10:11:01.296Z,20.40
2022-10-23T10:12:01.284Z,20.40
2022-10-23T10:13:01.275Z,20.41
2022-10-23T10:14:01.261Z,20.40
2022-10-23T10:15:01.255Z,20.40
2022-10-23T10:16:01.265Z,20.40
2022-10-23T10:17:01.233Z,20.40
2022-10-23T10:18:01.221Z,20.40
2022-10-23T10:19:01.209Z,20.40
2022-10-23T10:20:03.923Z,20.40
2022-10-23T10:21:02.213Z,20.40
2022-10-23T10:22:01.177Z,20.40
2022-10-23T10:23:01.166Z,20.39
2022-10-23T10:24:01.180Z,20.40
2022-10-23T10:25:01.172Z,20.41
2022-10-23T10:26:01.171Z,20.40
2022-10-23T10:27:01.123Z,20.39
2022-10-23T10:28:01.115Z,20.40
2022-10-23T10:29:01.101Z,20.40
2022-10-23T10:30:01.106Z,20.39
2022-10-23T10:31:01.081Z,20.40
2022-10-23T10:32:01.095Z,20.40
2022-10-23T10:33:01.058Z,20.40
2022-10-23T10:34:01.089Z,20.40
2022-10-23T10:35:01.036Z,20.41
2022-10-23T10:36:01.029Z,20.40
2022-10-23T10:37:01.015Z,20.40
2022-10-23T10:38:01.005Z,20.40
2022-10-23T10:39:00.996Z,20.40
2022-10-23T10:40:01.026Z,20.40
2022-10-23T10:41:00.998Z,20.40
2022-10-23T10:42:00.967Z,20.40
2022-10-23T10:43:00.951Z,20.39
2022-10-23T10:44:00.942Z,20.39
2022-10-23T10:45:00.929Z,20.40
2022-10-23T10:46:00.945Z,20.40
2022-10-23T10:47:00.908Z,20.40
2022-10-23T10:48:00.900Z,20.39
2022-10-23T10:49:00.887Z,20.40
2022-10-23T10:50:00.903Z,20.40
2022-10-23T10:51:00.891Z,20.40
2022-10-23T10:52:00.882Z,20.39
2022-10-23T10:53:00.866Z,20.40
2022-10-23T10:54:00.837Z,20.39
2022-10-23T10:55:00.824Z,20.41
2022-10-23T10:56:00.872Z,20.40
2022-10-23T10:57:00.830Z,20.40
2022-10-23T10:58:00.824Z,20.40
2022-10-23T10:59:00.778Z,20.39
2022-10-23T11:00:00.769Z,20.40
2022-10-23T11:01:00.895Z,20.39
2022-10-23T11:02:00.875Z,20.41
2022-10-23T11:03:00.736Z,20.39
2022-10-23T11:04:00.725Z,20.40
2022-10-23T11:05:00.717Z,20.39
2022-10-23T11:06:00.720Z,20.40
2022-10-23T11:07:00.715Z,20.39
2022-10-23T11:08:00.684Z,20.40
2022-10-23T11:09:19.402Z,20.40
2022-10-23T11:10:01.689Z,20.40
2022-10-23T11:11:00.650Z,20.41
2022-10-23T11:12:00.641Z,20.39
2022-10-23T11:13:00.656Z,20.39
2022-10-23T11:14:00.622Z,20.40
2022-10-23T11:15:00.630Z,20.40
2022-10-23T11:16:00.596Z,20.40
2022-10-23T11:17:00.584Z,20.40
2022-10-23T11:18:00.576Z,20.40
2022-10-23T11:19:00.595Z,20.40
2022-10-23T11:20:00.568Z,20.40
2022-10-23T11:21:00.543Z,20.40
2022-10-23T11:22:00.535Z,20.40
2022-10-23T11:23:00.549Z,20.40
2022-10-23T11:24:00.606Z,20.40
2022-10-23T11:25:00.497Z,20.40
2022-10-23T11:26:00.532Z,20.40
2022-10-23T11:27:00.476Z,20.40
2022-10-23T11:28:03.649Z,20.41
2022-10-23T11:29:00.479Z,20.40
2022-10-23T11:30:00.446Z,20.40
2022-10-23T11:31:00.443Z,20.41
2022-10-23T11:32:00.455Z,20.40
2022-10-23T11:33:00.412Z,20.40
2022-10-23T11:34:00.403Z,20.40
2022-10-23T11:35:00.392Z,20.40
2022-10-23T11:36:00.383Z,20.41
2022-10-23T11:37:00.390Z,20.41
2022-10-23T11:38:00.361Z,20.40
2022-10-23T11:39:00.347Z,20.40
2022-10-23T11:40:00.339Z,20.40
2022-10-23T11:41:00.325Z,20.40
2022-10-23T11:42:00.342Z,20.40
2022-10-23T11:43:00.331Z,20.39
2022-10-23T11:44:00.296Z,20.40
2022-10-23T11:45:00.306Z,20.40
2022-10-23T11:46:00.275Z,20.40
2022-10-23T11:47:00.261Z,20.40
2022-10-23T11:48:00.295Z,20.40
2022-10-23T11:49:00.300Z,20.40
2022-10-23T11:50:00.229Z,20.39
2022-10-23T11:51:02.811Z,20.40
2022-10-23T11:52:00.208Z,20.41
2022-10-23T11:53:13.549Z,20.40
2022-10-23T11:54:01.210Z,20.41
2022-10-23T11:55:00.181Z,20.40
2022-10-23T11:56:00.177Z,20.40
2022-10-23T11:57:00.176Z,20.40
2022-10-23T11:58:00.144Z,20.39
2022-10-23T11:59:00.144Z,20.40
2022-10-23T12:00:00.131Z,20.40
2022-10-23T12:01:00.205Z,20.40
2022-10-23T12:02:00.271Z,20.41
2022-10-23T12:03:00.175Z,20.40
2022-10-23T12:04:00.079Z,20.40
2022-10-23T12:05:00.071Z,20.41
2022-10-23T12:06:00.068Z,20.41
2022-10-23T12:07:00.071Z,20.40
2022-10-23T12:08:00.077Z,20.40
2022-10-23T12:09:00.027Z,20.41
2022-10-23T12:10:00.014Z,20.41
2022-10-23T12:11:00.029Z,20.41
2022-10-23T12:11:59.993Z,20.41
2022-10-23T12:12:59.983Z,20.41
2022-10-23T12:14:00.135Z,20.41
2022-10-23T12:14:59.961Z,20.41
2022-10-23T12:16:01.034Z,20.41
2022-10-23T12:16:59.961Z,20.41
2022-10-23T12:17:59.929Z,20.40
2022-10-23T12:18:59.918Z,20.40
2022-10-23T12:19:59.907Z,20.40
2022-10-23T12:20:59.924Z,20.41
2022-10-23T12:21:59.890Z,20.40
2022-10-23T12:22:59.874Z,20.40
2022-10-23T12:23:59.864Z,20.40
2022-10-23T12:24:59.856Z,20.40
2022-10-23T12:25:59.867Z,20.40
2022-10-23T12:26:59.834Z,20.40
2022-10-23T12:27:59.824Z,20.39
2022-10-23T12:28:59.825Z,20.40
2022-10-23T12:29:59.800Z,20.40
2022-10-23T12:30:59.815Z,20.40
2022-10-23T12:31:59.781Z,20.40
2022-10-23T12:32:59.816Z,20.40
2022-10-23T12:33:59.760Z,20.41
2022-10-23T12:34:59.746Z,20.41
2022-10-23T12:35:59.739Z,20.41
2022-10-23T12:36:59.724Z,20.41
2022-10-23T12:37:59.741Z,20.43
2022-10-23T12:38:59.729Z,20.41
2022-10-23T12:39:59.697Z,20.40
2022-10-23T12:40:59.681Z,20.41
2022-10-23T12:41:59.675Z,20.41
2022-10-23T12:42:59.661Z,20.40
2022-10-23T12:43:59.674Z,20.41
2022-10-23T12:44:59.639Z,20.43
2022-10-23T12:45:59.631Z,20.41
2022-10-23T12:46:59.620Z,20.41
2022-10-23T12:47:59.607Z,20.43
2022-10-23T12:48:59.647Z,20.41
2022-10-23T12:49:59.584Z,20.44
2022-10-23T12:50:59.575Z,20.43
2022-10-23T12:51:59.565Z,20.41
2022-10-23T12:52:59.590Z,20.41
2022-10-23T12:53:59.543Z,20.43
2022-10-23T12:54:59.531Z,20.43
2022-10-23T12:56:59.510Z,20.43
2022-10-23T12:57:59.523Z,20.44
2022-10-23T12:58:59.487Z,20.43